createdAt,value
2023-03-18T00:00:34.445Z,101397.66
2023-03-18T00:03:02.404Z,101398.44
2023-03-18T00:05:31.038Z,101395.97
2023-03-18T00:07:59.238Z,101398.63
2023-03-18T00:10:27.322Z,101394.59
2023-03-18T00:12:55.715Z,101390.56
2023-03-18T00:15:23.388Z,101392.13
2023-03-18T00:17:51.259Z,101393.41
2023-03-18T00:20:28.989Z,101389.38
2023-03-18T00:22:57.585Z,101385.00
2023-03-18T00:25:25.467Z,101389.63
2023-03-18T00:27:53.546Z,101384.03
2023-03-18T00:30:43.940Z,101394.28
2023-03-18T00:33:12.429Z,101387.53
2023-03-18T00:35:39.741Z,101385.47
2023-03-18T00:38:09.113Z,101378.22
2023-03-18T00:40:53.736Z,101377.75
2023-03-18T00:43:23.280Z,101375.56
2023-03-18T00:45:51.571Z,101378.31
2023-03-18T00:48:19.338Z,101378.53
2023-03-18T00:50:47.505Z,101379.88
2023-03-18T00:53:15.507Z,101374.25
2023-03-18T00:55:43.709Z,101370.41
2023-03-18T00:58:11.483Z,101372.69
2023-03-18T01:00:40.012Z,101360.69
2023-03-18T01:03:07.952Z,101365.63
2023-03-18T01:05:35.817Z,101360.03
2023-03-18T01:08:04.951Z,101357.47
2023-03-18T01:10:42.013Z,101355.72
2023-03-18T01:13:09.254Z,101347.47
2023-03-18T01:15:37.319Z,101352.75
2023-03-18T01:18:05.704Z,101347.63
2023-03-18T01:20:34.064Z,101343.59
2023-03-18T01:23:01.913Z,101349.03
2023-03-18T01:25:29.863Z,101345.72
2023-03-18T01:27:58.441Z,101342.97
2023-03-18T01:30:26.726Z,101332.84
2023-03-18T01:32:54.611Z,101327.47
2023-03-18T01:35:22.518Z,101320.94
2023-03-18T01:37:50.814Z,101325.25
2023-03-18T01:40:19.868Z,101321.75
2023-03-18T01:42:53.142Z,101312.38
2023-03-18T01:45:26.406Z,101313.88
2023-03-18T01:47:54.535Z,101315.41
2023-03-18T01:50:23.192Z,101310.28
2023-03-18T01:52:53.253Z,101306.22
2023-03-18T01:55:21.921Z,101303.84
2023-03-18T01:57:49.269Z,101299.16
2023-03-18T02:00:17.656Z,101301.47
2023-03-18T02:02:47.843Z,101308.06
2023-03-18T02:05:18.651Z,101303.41
2023-03-18T02:07:47.213Z,101296.88
2023-03-18T02:10:16.955Z,101301.78
2023-03-18T02:12:45.579Z,101293.44
2023-03-18T02:15:17.812Z,101293.25
2023-03-18T02:17:48.309Z,101288.22
2023-03-18T02:20:34.377Z,101285.59
2023-03-18T02:23:12.045Z,101277.66
2023-03-18T02:26:09.385Z,101282.78
2023-03-18T02:28:44.107Z,101290.16
2023-03-18T02:31:12.700Z,101279.84
2023-03-18T02:33:40.615Z,101280.63
2023-03-18T02:36:15.263Z,101284.69
2023-03-18T02:38:46.238Z,101275.97
2023-03-18T02:41:18.558Z,101275.38
2023-03-18T02:43:46.734Z,101272.91
2023-03-18T02:46:31.780Z,101270.34
2023-03-18T02:48:59.936Z,101271.47
2023-03-18T02:51:28.292Z,101270.41
2023-03-18T02:54:27.701Z,101277.19
2023-03-18T02:56:55.727Z,101263.88
2023-03-18T02:59:28.983Z,101263.88
2023-03-18T03:01:57.235Z,101269.13
2023-03-18T03:04:25.616Z,101281.50
2023-03-18T03:06:54.467Z,101270.94
2023-03-18T03:09:23.012Z,101269.94
2023-03-18T03:11:50.540Z,101265.56
2023-03-18T03:14:18.147Z,101263.09
2023-03-18T03:16:46.836Z,101271.13
2023-03-18T03:19:14.739Z,101270.69
2023-03-18T03:21:42.894Z,101278.94
2023-03-18T03:24:11.130Z,101263.47
2023-03-18T03:26:38.813Z,101261.91
2023-03-18T03:29:07.193Z,101272.00
2023-03-18T03:31:35.597Z,101265.81
2023-03-18T03:34:04.257Z,101263.78
2023-03-18T03:36:33.074Z,101263.78
2023-03-18T03:39:01.022Z,101262.19
2023-03-18T03:41:29.468Z,101268.97
2023-03-18T03:43:57.553Z,101268.56
2023-03-18T03:46:26.382Z,101272.28
2023-03-18T03:48:54.251Z,101263.75
2023-03-18T03:51:22.366Z,101261.69
2023-03-18T03:53:51.029Z,101267.31
2023-03-18T03:56:18.744Z,101261.16
2023-03-18T03:58:47.057Z,101255.34
2023-03-18T04:01:15.432Z,101257.47
2023-03-18T04:03:43.310Z,101262.06
2023-03-18T04:06:11.216Z,101256.19
2023-03-18T04:08:39.229Z,101259.50
2023-03-18T04:11:07.786Z,101253.25
2023-03-18T04:13:35.805Z,101256.78
2023-03-18T04:16:04.116Z,101253.44
2023-03-18T04:18:31.962Z,101257.75
2023-03-18T04:21:00.234Z,101260.91
2023-03-18T04:23:28.013Z,101259.94
2023-03-18T04:25:55.663Z,101258.78
2023-03-18T04:28:23.811Z,101267.03
2023-03-18T04:30:52.332Z,101268.50
2023-03-18T04:33:21.174Z,101271.75
2023-03-18T04:35:48.999Z,101258.84
2023-03-18T04:38:16.671Z,101262.25
2023-03-18T04:40:45.652Z,101260.78
2023-03-18T04:43:13.847Z,101262.38
2023-03-18T04:45:41.871Z,101261.59
2023-03-18T04:48:11.146Z,101264.16
2023-03-18T04:50:38.794Z,101264.41
2023-03-18T04:53:06.551Z,101269.63
2023-03-18T04:55:35.078Z,101262.75
2023-03-18T04:58:03.674Z,101257.56
2023-03-18T05:00:31.876Z,101256.97
2023-03-18T05:02:59.823Z,101264.41
2023-03-18T05:05:28.380Z,101267.28
2023-03-18T05:07:56.166Z,101266.03
2023-03-18T05:10:24.241Z,101261.81
2023-03-18T05:12:52.125Z,101264.25
2023-03-18T05:15:20.434Z,101267.78
2023-03-18T05:17:48.032Z,101272.19
2023-03-18T05:20:15.724Z,101274.25
2023-03-18T05:22:43.233Z,101273.25
2023-03-18T05:25:12.023Z,101279.16
2023-03-18T05:27:40.085Z,101274.25
2023-03-18T05:30:11.260Z,101280.16
2023-03-18T05:32:39.809Z,101273.38
2023-03-18T05:35:08.160Z,101279.63
2023-03-18T05:37:35.500Z,101280.41
2023-03-18T05:40:04.614Z,101282.38
2023-03-18T05:42:34.103Z,101281.19
2023-03-18T05:45:03.043Z,101289.34
2023-03-18T05:47:31.003Z,101289.63
2023-03-18T05:49:58.954Z,101296.78
2023-03-18T05:52:26.769Z,101293.72
2023-03-18T05:54:54.439Z,101299.22
2023-03-18T05:57:22.467Z,101300.63
2023-03-18T05:59:49.966Z,101298.16
2023-03-18T06:02:18.458Z,101297.88
2023-03-18T06:04:47.918Z,101297.09
2023-03-18T06:07:16.072Z,101299.13
2023-03-18T06:09:44.718Z,101295.97
2023-03-18T06:12:13.066Z,101289.28
2023-03-18T06:14:40.978Z,101282.00
2023-03-18T06:17:09.783Z,101279.16
2023-03-18T06:19:38.215Z,101284.63
2023-03-18T06:22:06.609Z,101288.31
2023-03-18T06:24:35.001Z,101292.75
2023-03-18T06:27:03.027Z,101289.28
2023-03-18T06:29:30.609Z,101293.19
2023-03-18T06:31:58.960Z,101294.25
2023-03-18T06:34:27.102Z,101299.66
2023-03-18T06:36:55.010Z,101308.66
2023-03-18T06:39:23.163Z,101304.69
2023-03-18T06:41:51.316Z,101307.34
2023-03-18T06:44:19.383Z,101307.81
2023-03-18T06:46:47.355Z,101309.59
2023-03-18T06:49:15.820Z,101312.84
2023-03-18T06:51:42.752Z,101316.97
2023-03-18T06:54:10.772Z,101317.31
2023-03-18T06:56:40.074Z,101316.09
2023-03-18T06:59:08.147Z,101310.25
2023-03-18T07:01:39.319Z,101322.13
2023-03-18T07:04:08.230Z,101316.44
2023-03-18T07:06:37.273Z,101322.47
2023-03-18T07:09:05.091Z,101323.78
2023-03-18T07:11:32.745Z,101327.44
2023-03-18T07:14:00.730Z,101331.16
2023-03-18T07:16:29.038Z,101326.38
2023-03-18T07:18:59.167Z,101344.53
2023-03-18T07:21:27.860Z,101330.53
2023-03-18T07:23:55.901Z,101326.91
2023-03-18T07:26:24.167Z,101325.34
2023-03-18T07:28:52.454Z,101321.03
2023-03-18T07:31:20.324Z,101326.19
2023-03-18T07:33:48.859Z,101329.63
2023-03-18T07:36:16.927Z,101333.91
2023-03-18T07:38:44.097Z,101333.81
2023-03-18T07:41:12.592Z,101339.53
2023-03-18T07:43:40.954Z,101339.00
2023-03-18T07:46:09.441Z,101345.34
2023-03-18T07:48:37.485Z,101344.91
2023-03-18T07:51:06.175Z,101346.44
2023-03-18T07:53:34.123Z,101347.75
2023-03-18T07:56:10.031Z,101353.38
2023-03-18T07:58:38.781Z,101358.88
2023-03-18T08:01:07.716Z,101365.53
2023-03-18T08:03:36.101Z,101361.78
2023-03-18T08:06:04.427Z,101369.19
2023-03-18T08:08:32.390Z,101370.44
2023-03-18T08:11:00.653Z,101380.38
2023-03-18T08:13:31.286Z,101376.66
2023-03-18T08:15:59.009Z,101374.28
2023-03-18T08:18:27.218Z,101377.03
2023-03-18T08:20:55.538Z,101379.25
2023-03-18T08:23:23.844Z,101370.53
2023-03-18T08:25:51.012Z,101365.00
2023-03-18T08:28:19.337Z,101363.38
2023-03-18T08:30:47.577Z,101367.47
2023-03-18T08:33:15.934Z,101372.31
2023-03-18T08:35:43.625Z,101369.34
2023-03-18T08:38:10.797Z,101371.84
2023-03-18T08:40:40.228Z,101370.59
2023-03-18T08:43:08.356Z,101377.75
2023-03-18T08:45:37.534Z,101379.38
2023-03-18T08:48:06.084Z,101383.03
2023-03-18T08:50:35.793Z,101377.47
2023-03-18T08:53:03.808Z,101375.06
2023-03-18T08:55:37.254Z,101375.16
2023-03-18T08:58:07.927Z,101373.03
2023-03-18T09:00:36.655Z,101368.31
2023-03-18T09:03:05.653Z,101363.66
2023-03-18T09:05:33.807Z,101370.56
2023-03-18T09:08:01.874Z,101366.66
2023-03-18T09:10:30.342Z,101368.84
2023-03-18T09:12:58.419Z,101366.59
2023-03-18T09:15:27.180Z,101370.31
2023-03-18T09:18:10.405Z,101370.72
2023-03-18T09:20:40.244Z,101375.31
2023-03-18T09:23:08.899Z,101373.28
2023-03-18T09:25:36.644Z,101369.31
2023-03-18T09:28:04.301Z,101362.34
2023-03-18T09:30:32.185Z,101359.00
2023-03-18T09:32:59.963Z,101367.66
2023-03-18T09:35:29.264Z,101364.75
2023-03-18T09:37:57.780Z,101366.34
2023-03-18T09:40:32.850Z,101367.25
2023-03-18T09:43:34.000Z,101369.66
2023-03-18T09:46:09.864Z,101366.16
2023-03-18T09:48:57.376Z,101371.84
2023-03-18T09:51:34.882Z,101370.50
2023-03-18T09:54:04.879Z,101361.22
2023-03-18T09:56:34.674Z,101360.78
2023-03-18T09:59:16.016Z,101369.78
2023-03-18T10:01:47.646Z,101363.94
2023-03-18T10:04:28.917Z,101365.31
2023-03-18T10:07:02.654Z,101367.13
2023-03-18T10:09:33.706Z,101363.09
2023-03-18T10:12:22.119Z,101359.13
2023-03-18T10:15:16.867Z,101356.06
2023-03-18T10:17:54.246Z,101351.25
2023-03-18T10:20:37.700Z,101359.34
2023-03-18T10:23:30.793Z,101347.50
2023-03-18T10:26:02.492Z,101361.03
2023-03-18T10:28:32.426Z,101349.75
2023-03-18T10:31:21.195Z,101351.31
2023-03-18T10:33:59.491Z,101347.78
2023-03-18T10:36:55.835Z,101344.31
2023-03-18T10:39:47.515Z,101345.16
2023-03-18T10:42:27.906Z,101343.41
2023-03-18T10:44:57.199Z,101340.97
2023-03-18T10:47:29.139Z,101331.88
2023-03-18T10:50:11.082Z,101336.75
2023-03-18T10:52:41.353Z,101336.59
2023-03-18T10:55:19.728Z,101337.13
2023-03-18T10:57:47.728Z,101341.28
2023-03-18T11:00:54.145Z,101333.88
2023-03-18T11:03:27.422Z,101336.91
2023-03-18T11:05:58.863Z,101320.56
2023-03-18T11:08:39.600Z,101325.34
2023-03-18T11:11:16.240Z,101323.16
2023-03-18T11:14:08.206Z,101323.16
2023-03-18T11:16:38.419Z,101333.63
2023-03-18T11:19:35.490Z,101330.16
2023-03-18T11:22:10.561Z,101325.81
2023-03-18T11:24:44.965Z,101333.63
2023-03-18T11:27:15.011Z,101331.03
2023-03-18T11:29:47.008Z,101330.16
2023-03-18T11:32:24.175Z,101327.56
2023-03-18T11:34:56.012Z,101318.69
2023-03-18T11:37:26.674Z,101318.66
2023-03-18T11:39:59.081Z,101315.91
2023-03-18T11:42:27.269Z,101313.34
2023-03-18T11:44:57.617Z,101308.94
2023-03-18T11:47:26.905Z,101308.75
2023-03-18T11:49:54.771Z,101306.91
2023-03-18T11:52:42.097Z,101300.66
2023-03-18T11:55:21.122Z,101292.69
2023-03-18T11:58:10.451Z,101295.28
2023-03-18T12:00:48.290Z,101292.94
2023-03-18T12:03:24.816Z,101293.03
2023-03-18T12:06:20.276Z,101281.91
2023-03-18T12:09:17.525Z,101273.41
2023-03-18T12:12:16.310Z,101275.25
2023-03-18T12:15:03.314Z,101269.16
2023-03-18T12:17:35.712Z,101272.63
2023-03-18T12:20:31.031Z,101263.00
2023-03-18T12:22:58.298Z,101254.91
2023-03-18T12:25:50.681Z,101255.56
2023-03-18T12:28:52.947Z,101253.75
2023-03-18T12:31:22.905Z,101250.91
2023-03-18T12:33:55.018Z,101247.44
2023-03-18T12:36:34.303Z,101251.84
2023-03-18T12:39:22.828Z,101250.94
2023-03-18T12:42:05.153Z,101238.41
2023-03-18T12:44:44.034Z,101237.31
2023-03-18T12:47:18.129Z,101234.56
2023-03-18T12:50:05.049Z,101229.78
2023-03-18T12:52:36.397Z,101223.16
2023-03-18T12:55:11.175Z,101224.50
2023-03-18T12:57:47.718Z,101222.91
2023-03-18T13:00:15.054Z,101221.34
2023-03-18T13:03:11.212Z,101217.97
2023-03-18T13:05:47.478Z,101216.16
2023-03-18T13:08:17.184Z,101210.97
2023-03-18T13:10:47.946Z,101208.31
2023-03-18T13:13:15.639Z,101209.94
2023-03-18T13:15:49.713Z,101210.44
2023-03-18T13:18:23.075Z,101208.19
2023-03-18T13:20:53.850Z,101208.94
2023-03-18T13:23:59.200Z,101207.53
2023-03-18T13:26:44.050Z,101212.38
2023-03-18T13:29:35.056Z,101207.69
2023-03-18T13:32:31.945Z,101202.28
2023-03-18T13:35:14.510Z,101198.63
2023-03-18T13:38:03.357Z,101203.50
2023-03-18T13:40:50.361Z,101207.16
2023-03-18T13:43:18.993Z,101189.84
2023-03-18T13:45:51.843Z,101193.88
2023-03-18T13:48:42.912Z,101187.63
2023-03-18T13:51:21.887Z,101188.91
2023-03-18T13:53:50.646Z,101182.00
2023-03-18T13:56:42.138Z,101185.59
2023-03-18T13:59:38.501Z,101187.41
2023-03-18T14:02:26.687Z,101181.94
2023-03-18T14:04:54.395Z,101172.16
2023-03-18T14:07:22.608Z,101173.28
2023-03-18T14:10:17.261Z,101166.97
2023-03-18T14:12:47.669Z,101161.56
2023-03-18T14:15:15.308Z,101164.94
2023-03-18T14:17:47.766Z,101160.91
2023-03-18T14:20:17.872Z,101166.13
2023-03-18T14:23:23.174Z,101156.72
2023-03-18T14:25:54.584Z,101160.06
2023-03-18T14:28:25.655Z,101158.34
2023-03-18T14:30:58.616Z,101158.78
2023-03-18T14:33:25.648Z,101157.91
2023-03-18T14:35:58.425Z,101163.84
2023-03-18T14:38:32.856Z,101156.81
2023-03-18T14:41:00.157Z,101152.31
2023-03-18T14:43:41.117Z,101158.72
2023-03-18T14:46:17.799Z,101152.81
2023-03-18T14:48:45.246Z,101156.25
2023-03-18T14:51:20.622Z,101153.22
2023-03-18T14:54:01.686Z,101153.75
2023-03-18T14:56:41.840Z,101145.78
2023-03-18T14:59:17.492Z,101149.84
2023-03-18T15:01:46.924Z,101146.53
2023-03-18T15:04:25.010Z,101149.25
2023-03-18T15:06:53.233Z,101146.75
2023-03-18T15:09:24.450Z,101135.28
2023-03-18T15:11:52.062Z,101134.38
2023-03-18T15:14:27.813Z,101142.03
2023-03-18T15:17:04.917Z,101138.84
2023-03-18T15:19:50.202Z,101138.81
2023-03-18T15:22:26.143Z,101135.06
2023-03-18T15:24:55.747Z,101140.19
2023-03-18T15:27:23.036Z,101139.88
2023-03-18T15:29:57.226Z,101131.34
2023-03-18T15:32:53.130Z,101132.63
2023-03-18T15:35:24.733Z,101124.38
2023-03-18T15:38:05.622Z,101125.22
2023-03-18T15:40:36.396Z,101127.50
2023-03-18T15:43:10.475Z,101122.81
2023-03-18T15:46:06.883Z,101122.81
2023-03-18T15:48:41.011Z,101117.28
2023-03-18T15:51:23.565Z,101116.50
2023-03-18T15:53:53.434Z,101114.41
2023-03-18T15:56:26.476Z,101115.28
2023-03-18T15:59:11.779Z,101118.09
2023-03-18T16:01:40.530Z,101109.59
2023-03-18T16:04:10.377Z,101104.34
2023-03-18T16:06:38.645Z,101113.03
2023-03-18T16:09:34.403Z,101110.53
2023-03-18T16:12:02.504Z,101109.03
2023-03-18T16:14:34.849Z,101111.00
2023-03-18T16:17:03.332Z,101121.78
2023-03-18T16:19:31.025Z,101115.50
2023-03-18T16:21:58.910Z,101130.47
2023-03-18T16:24:26.612Z,101118.44
2023-03-18T16:26:53.806Z,101137.59
2023-03-18T16:29:41.712Z,101137.31
2023-03-18T16:32:17.708Z,101144.34
2023-03-18T16:34:46.822Z,101144.00
2023-03-18T16:37:37.427Z,101141.56
2023-03-18T16:40:08.885Z,101135.97
2023-03-18T16:42:36.561Z,101138.84
2023-03-18T16:45:05.494Z,101146.56
2023-03-18T16:47:33.594Z,101146.91
2023-03-18T16:50:01.735Z,101148.00
2023-03-18T16:52:29.444Z,101142.00
2023-03-18T16:54:57.966Z,101154.25
2023-03-18T16:57:25.457Z,101157.69
2023-03-18T16:59:54.213Z,101168.09
2023-03-18T17:02:32.070Z,101167.16
2023-03-18T17:05:01.523Z,101170.47
2023-03-18T17:07:29.765Z,101174.72
2023-03-18T17:09:57.676Z,101165.03
2023-03-18T17:12:26.510Z,101179.63
2023-03-18T17:14:54.772Z,101183.81
2023-03-18T17:17:28.952Z,101188.91
2023-03-18T17:19:57.004Z,101193.06
2023-03-18T17:22:25.177Z,101189.44
2023-03-18T17:24:53.319Z,101187.47
2023-03-18T17:27:25.700Z,101189.97
2023-03-18T17:29:59.340Z,101189.78
2023-03-18T17:32:27.398Z,101194.84
2023-03-18T17:34:55.051Z,101194.69
2023-03-18T17:37:23.635Z,101195.41
2023-03-18T17:39:51.376Z,101200.50
2023-03-18T17:42:28.847Z,101201.22
2023-03-18T17:44:57.614Z,101207.19
2023-03-18T17:47:25.910Z,101209.63
2023-03-18T17:49:55.389Z,101212.00
2023-03-18T17:52:23.113Z,101211.88
2023-03-18T17:54:50.297Z,101214.38
2023-03-18T17:57:17.596Z,101206.44
2023-03-18T17:59:46.062Z,101215.84
2023-03-18T18:02:21.288Z,101223.53
2023-03-18T18:04:55.927Z,101224.28
2023-03-18T18:07:23.802Z,101220.72
2023-03-18T18:09:51.753Z,101223.22
2023-03-18T18:12:25.092Z,101223.13
2023-03-18T18:14:52.328Z,101218.63
2023-03-18T18:17:20.666Z,101233.16
2023-03-18T18:19:48.202Z,101233.97
2023-03-18T18:22:17.565Z,101251.25
2023-03-18T18:24:47.007Z,101258.88
2023-03-18T18:27:14.904Z,101266.38
2023-03-18T18:29:46.245Z,101267.81
2023-03-18T18:32:15.484Z,101273.50
2023-03-18T18:34:43.258Z,101276.78
2023-03-18T18:37:11.406Z,101271.28
2023-03-18T18:39:39.477Z,101286.59
2023-03-18T18:42:07.590Z,101294.16
2023-03-18T18:44:35.794Z,101295.59
2023-03-18T18:47:03.533Z,101299.72
2023-03-18T18:49:31.163Z,101312.38
2023-03-18T18:52:01.998Z,101305.28
2023-03-18T18:54:29.588Z,101308.47
2023-03-18T18:56:58.184Z,101308.22
2023-03-18T18:59:27.714Z,101302.00
2023-03-18T19:01:55.489Z,101312.28
2023-03-18T19:04:23.313Z,101313.75
2023-03-18T19:06:51.654Z,101310.06
2023-03-18T19:09:20.008Z,101315.06
2023-03-18T19:11:48.641Z,101315.81
2023-03-18T19:14:24.307Z,101309.53
2023-03-18T19:16:51.686Z,101311.88
2023-03-18T19:19:25.034Z,101309.97
2023-03-18T19:21:53.447Z,101310.69
2023-03-18T19:24:26.486Z,101324.38
2023-03-18T19:26:58.274Z,101326.78
2023-03-18T19:29:25.032Z,101331.91
2023-03-18T19:31:53.180Z,101314.50
2023-03-18T19:34:20.929Z,101326.47
2023-03-18T19:36:53.173Z,101335.97
2023-03-18T19:39:21.156Z,101333.25
2023-03-18T19:41:48.973Z,101333.06
2023-03-18T19:44:23.839Z,101331.25
2023-03-18T19:46:52.618Z,101331.16
2023-03-18T19:49:35.228Z,101331.97
2023-03-18T19:52:03.672Z,101331.91
2023-03-18T19:54:32.238Z,101334.38
2023-03-18T19:57:20.095Z,101339.53
2023-03-18T19:59:48.724Z,101340.38
2023-03-18T20:02:30.514Z,101340.19
2023-03-18T20:04:59.798Z,101332.13
2023-03-18T20:07:28.958Z,101333.06
2023-03-18T20:09:56.865Z,101327.69
2023-03-18T20:12:36.370Z,101326.69
2023-03-18T20:15:05.795Z,101326.50
2023-03-18T20:17:36.927Z,101325.41
2023-03-18T20:20:07.683Z,101323.56
2023-03-18T20:22:38.621Z,101330.16
2023-03-18T20:25:37.258Z,101334.25
2023-03-18T20:28:06.056Z,101333.88
2023-03-18T20:30:35.469Z,101335.16
2023-03-18T20:33:07.317Z,101340.81
2023-03-18T20:35:39.480Z,101353.50
2023-03-18T20:38:33.984Z,101349.91
2023-03-18T20:41:01.851Z,101355.13
2023-03-18T20:43:29.345Z,101357.66
2023-03-18T20:45:58.655Z,101359.44
2023-03-18T20:48:26.701Z,101363.59
2023-03-18T20:50:53.420Z,101356.66
2023-03-18T20:53:24.629Z,101355.78
2023-03-18T20:55:52.014Z,101358.38
2023-03-18T20:58:27.505Z,101349.53
2023-03-18T21:00:55.294Z,101352.94
2023-03-18T21:03:29.603Z,101342.41
2023-03-18T21:05:57.964Z,101344.69
2023-03-18T21:08:26.191Z,101353.47
2023-03-18T21:10:54.498Z,101363.78
2023-03-18T21:13:38.781Z,101350.91
2023-03-18T21:16:08.588Z,101356.84
2023-03-18T21:18:36.640Z,101367.38
2023-03-18T21:21:04.722Z,101367.19
2023-03-18T21:23:33.535Z,101357.00
2023-03-18T21:26:02.274Z,101358.72
2023-03-18T21:28:31.179Z,101373.94
2023-03-18T21:30:58.806Z,101374.53
2023-03-18T21:33:29.996Z,101360.63
2023-03-18T21:35:57.412Z,101367.31
2023-03-18T21:38:28.976Z,101355.97
2023-03-18T21:40:56.481Z,101364.38
2023-03-18T21:43:33.797Z,101369.47
2023-03-18T21:46:02.076Z,101364.28
2023-03-18T21:48:29.415Z,101364.16
2023-03-18T21:50:57.562Z,101367.56
2023-03-18T21:53:25.064Z,101365.16
2023-03-18T21:55:52.630Z,101360.78
2023-03-18T21:58:21.629Z,101363.28
2023-03-18T22:01:27.431Z,101358.38
2023-03-18T22:03:55.283Z,101365.25
2023-03-18T22:06:23.606Z,101364.53
2023-03-18T22:08:51.529Z,101369.69
2023-03-18T22:11:20.584Z,101376.47
2023-03-18T22:13:49.431Z,101370.38
2023-03-18T22:16:17.809Z,101366.97
2023-03-18T22:18:45.363Z,101360.00
2023-03-18T22:21:43.728Z,101359.88
2023-03-18T22:24:14.954Z,101364.06
2023-03-18T22:26:43.041Z,101351.22
2023-03-18T22:29:11.478Z,101359.63
2023-03-18T22:31:40.074Z,101362.19
2023-03-18T22:34:18.275Z,101361.88
2023-03-18T22:36:47.081Z,101350.72
2023-03-18T22:39:15.163Z,101348.66
2023-03-18T22:41:43.256Z,101353.81
2023-03-18T22:44:23.704Z,101352.00
2023-03-18T22:46:51.474Z,101356.16
2023-03-18T22:49:19.474Z,101358.78
2023-03-18T22:51:47.845Z,101352.63
2023-03-18T22:54:17.994Z,101351.69
2023-03-18T22:56:45.524Z,101360.22
2023-03-18T22:59:14.469Z,101355.97
2023-03-18T23:01:43.768Z,101362.44
2023-03-18T23:04:12.269Z,101366.75
2023-03-18T23:06:40.408Z,101363.84
2023-03-18T23:09:08.489Z,101363.19
2023-03-18T23:11:36.266Z,101363.88
2023-03-18T23:14:03.626Z,101354.28
2023-03-18T23:16:31.474Z,101356.06
2023-03-18T23:18:58.810Z,101350.91
2023-03-18T23:21:26.642Z,101357.88
2023-03-18T23:23:56.313Z,101348.44
2023-03-18T23:26:24.307Z,101345.06
2023-03-18T23:28:51.934Z,101347.00
2023-03-18T23:31:19.447Z,101349.31
2023-03-18T23:33:47.312Z,101353.09
2023-03-18T23:36:15.132Z,101354.31
2023-03-18T23:38:42.828Z,101368.59
2023-03-18T23:41:10.476Z,101365.75
2023-03-18T23:43:38.063Z,101371.59
2023-03-18T23:46:05.819Z,101373.22
2023-03-18T23:48:33.997Z,101367.84
2023-03-18T23:51:01.876Z,101373.53
2023-03-18T23:53:30.131Z,101364.69
2023-03-18T23:55:57.860Z,101362.13
2023-03-18T23:58:25.917Z,101358.03
